sensor_id;sensor_type;location;lat;lon;timestamp;P1;durP1;ratioP1;P2;durP2;ratioP2
37169;SDS011;23062;13.952;100.608;2022-07-29T00:02:53;13.00;;;9.00;;
37169;SDS011;23062;13.952;100.608;2022-07-29T00:07:43;14.00;;;10.00;;
37169;SDS011;23062;13.952;100.608;2022-07-29T00:12:33;15.00;;;11.00;;
37169;SDS011;23062;13.952;100.608;2022-07-29T00:17:25;16.00;;;11.00;;
37169;SDS011;23062;13.952;100.608;2022-07-29T00:22:15;14.00;;;10.00;;
37169;SDS011;23062;13.952;100.608;2022-07-29T00:27:04;17.00;;;13.00;;
37169;SDS011;23062;13.952;100.608;2022-07-29T00:31:54;19.00;;;13.00;;
37169;SDS011;23062;13.952;100.608;2022-07-29T00:36:44;18.00;;;14.00;;
37169;SDS011;23062;13.952;100.608;2022-07-29T00:41:33;20.00;;;14.00;;
37169;SDS011;23062;13.952;100.608;2022-07-29T00:46:23;18.00;;;13.00;;
37169;SDS011;23062;13.952;100.608;2022-07-29T00:51:14;17.00;;;13.00;;
37169;SDS011;23062;13.952;100.608;2022-07-29T00:56:04;14.00;;;10.00;;
37169;SDS011;23062;13.952;100.608;2022-07-29T01:00:54;16.00;;;12.00;;
37169;SDS011;23062;13.952;100.608;2022-07-29T01:05:44;20.00;;;15.00;;
37169;SDS011;23062;13.952;100.608;2022-07-29T01:10:36;18.00;;;13.00;;
37169;SDS011;23062;13.952;100.608;2022-07-29T01:15:27;15.00;;;11.00;;
37169;SDS011;23062;13.952;100.608;2022-07-29T01:20:25;14.00;;;11.00;;
37169;SDS011;23062;13.952;100.608;2022-07-29T01:30:33;14.00;;;10.00;;
37169;SDS011;23062;13.952;100.608;2022-07-29T01:35:27;15.00;;;10.00;;
37169;SDS011;23062;13.952;100.608;2022-07-29T01:45:28;20.00;;;14.00;;
37169;SDS011;23062;13.952;100.608;2022-07-29T01:50:18;14.00;;;11.00;;
37169;SDS011;23062;13.952;100.608;2022-07-29T01:55:12;16.00;;;12.00;;
37169;SDS011;23062;13.952;100.608;2022-07-29T02:00:03;17.00;;;12.00;;
37169;SDS011;23062;13.952;100.608;2022-07-29T02:04:54;17.00;;;13.00;;
37169;SDS011;23062;13.952;100.608;2022-07-29T02:09:47;16.00;;;12.00;;
37169;SDS011;23062;13.952;100.608;2022-07-29T02:14:40;17.00;;;12.00;;
37169;SDS011;23062;13.952;100.608;2022-07-29T02:19:31;13.00;;;9.00;;
37169;SDS011;23062;13.952;100.608;2022-07-29T02:24:22;14.00;;;10.00;;
37169;SDS011;23062;13.952;100.608;2022-07-29T02:29:12;13.00;;;9.00;;
37169;SDS011;23062;13.952;100.608;2022-07-29T02:34:06;13.00;;;10.00;;
37169;SDS011;23062;13.952;100.608;2022-07-29T02:38:58;13.00;;;9.00;;
37169;SDS011;23062;13.952;100.608;2022-07-29T02:44:02;11.00;;;8.00;;
37169;SDS011;23062;13.952;100.608;2022-07-29T02:53:51;12.00;;;9.00;;
37169;SDS011;23062;13.952;100.608;2022-07-29T02:58:45;9.00;;;7.00;;
37169;SDS011;23062;13.952;100.608;2022-07-29T03:03:35;9.00;;;6.00;;
37169;SDS011;23062;13.952;100.608;2022-07-29T03:08:27;9.00;;;7.00;;
37169;SDS011;23062;13.952;100.608;2022-07-29T03:13:18;12.00;;;8.00;;
37169;SDS011;23062;13.952;100.608;2022-07-29T03:18:09;10.00;;;7.00;;
37169;SDS011;23062;13.952;100.608;2022-07-29T03:23:00;10.00;;;7.00;;
37169;SDS011;23062;13.952;100.608;2022-07-29T03:27:50;13.00;;;9.00;;
37169;SDS011;23062;13.952;100.608;2022-07-29T03:32:40;14.00;;;10.00;;
37169;SDS011;23062;13.952;100.608;2022-07-29T03:37:30;12.00;;;8.00;;
37169;SDS011;23062;13.952;100.608;2022-07-29T03:42:20;14.00;;;10.00;;
37169;SDS011;23062;13.952;100.608;2022-07-29T03:47:11;15.00;;;11.00;;
37169;SDS011;23062;13.952;100.608;2022-07-29T03:52:03;11.00;;;8.00;;
37169;SDS011;23062;13.952;100.608;2022-07-29T03:56:53;12.00;;;8.00;;
37169;SDS011;23062;13.952;100.608;2022-07-29T04:01:45;11.00;;;8.00;;
37169;SDS011;23062;13.952;100.608;2022-07-29T04:06:39;9.00;;;7.00;;
37169;SDS011;23062;13.952;100.608;2022-07-29T04:11:31;12.00;;;8.00;;
37169;SDS011;23062;13.952;100.608;2022-07-29T04:16:22;9.00;;;6.00;;
37169;SDS011;23062;13.952;100.608;2022-07-29T04:21:12;8.00;;;6.00;;
37169;SDS011;23062;13.952;100.608;2022-07-29T04:26:02;8.00;;;6.00;;
37169;SDS011;23062;13.952;100.608;2022-07-29T04:30:52;8.00;;;5.00;;
37169;SDS011;23062;13.952;100.608;2022-07-29T04:35:41;9.00;;;7.00;;
37169;SDS011;23062;13.952;100.608;2022-07-29T04:40:31;9.00;;;6.00;;
37169;SDS011;23062;13.952;100.608;2022-07-29T04:45:21;7.00;;;5.00;;
37169;SDS011;23062;13.952;100.608;2022-07-29T04:50:11;14.00;;;11.00;;
37169;SDS011;23062;13.952;100.608;2022-07-29T04:55:01;51.00;;;38.00;;
37169;SDS011;23062;13.952;100.608;2022-07-29T04:59:51;30.00;;;22.00;;
37169;SDS011;23062;13.952;100.608;2022-07-29T05:04:41;19.00;;;14.00;;
37169;SDS011;23062;13.952;100.608;2022-07-29T05:09:32;11.00;;;8.00;;
37169;SDS011;23062;13.952;100.608;2022-07-29T05:14:23;10.00;;;7.00;;
37169;SDS011;23062;13.952;100.608;2022-07-29T05:19:13;10.00;;;7.00;;
37169;SDS011;23062;13.952;100.608;2022-07-29T05:24:02;8.00;;;5.00;;
37169;SDS011;23062;13.952;100.608;2022-07-29T05:28:52;9.00;;;6.00;;
37169;SDS011;23062;13.952;100.608;2022-07-29T05:33:42;8.00;;;6.00;;
37169;SDS011;23062;13.952;100.608;2022-07-29T05:38:32;8.00;;;5.00;;
37169;SDS011;23062;13.952;100.608;2022-07-29T05:43:21;8.00;;;6.00;;
37169;SDS011;23062;13.952;100.608;2022-07-29T05:48:11;8.00;;;5.00;;
37169;SDS011;23062;13.952;100.608;2022-07-29T05:53:00;5.00;;;4.00;;
37169;SDS011;23062;13.952;100.608;2022-07-29T05:57:53;8.00;;;5.00;;
37169;SDS011;23062;13.952;100.608;2022-07-29T06:02:43;8.00;;;5.00;;
37169;SDS011;23062;13.952;100.608;2022-07-29T06:07:33;7.00;;;5.00;;
37169;SDS011;23062;13.952;100.608;2022-07-29T06:12:23;8.00;;;5.00;;
37169;SDS011;23062;13.952;100.608;2022-07-29T06:17:13;9.00;;;6.00;;
37169;SDS011;23062;13.952;100.608;2022-07-29T06:22:03;9.00;;;6.00;;
37169;SDS011;23062;13.952;100.608;2022-07-29T06:26:53;9.00;;;6.00;;
37169;SDS011;23062;13.952;100.608;2022-07-29T06:31:45;7.00;;;5.00;;
37169;SDS011;23062;13.952;100.608;2022-07-29T06:36:35;6.00;;;4.00;;
37169;SDS011;23062;13.952;100.608;2022-07-29T06:41:25;7.00;;;5.00;;
37169;SDS011;23062;13.952;100.608;2022-07-29T06:46:15;7.00;;;5.00;;
37169;SDS011;23062;13.952;100.608;2022-07-29T06:51:05;8.00;;;5.00;;
37169;SDS011;23062;13.952;100.608;2022-07-29T06:55:56;8.00;;;5.00;;
37169;SDS011;23062;13.952;100.608;2022-07-29T07:00:47;8.00;;;5.00;;
37169;SDS011;23062;13.952;100.608;2022-07-29T07:05:37;8.00;;;5.00;;
37169;SDS011;23062;13.952;100.608;2022-07-29T07:10:27;9.00;;;6.00;;
37169;SDS011;23062;13.952;100.608;2022-07-29T07:15:17;9.00;;;7.00;;
37169;SDS011;23062;13.952;100.608;2022-07-29T07:20:09;8.00;;;6.00;;
37169;SDS011;23062;13.952;100.608;2022-07-29T07:24:59;10.00;;;7.00;;
37169;SDS011;23062;13.952;100.608;2022-07-29T07:29:48;12.00;;;9.00;;
37169;SDS011;23062;13.952;100.608;2022-07-29T07:34:38;11.00;;;8.00;;
37169;SDS011;23062;13.952;100.608;2022-07-29T07:39:27;9.00;;;6.00;;
37169;SDS011;23062;13.952;100.608;2022-07-29T07:44:17;8.00;;;5.00;;
37169;SDS011;23062;13.952;100.608;2022-07-29T07:49:08;8.00;;;5.00;;
37169;SDS011;23062;13.952;100.608;2022-07-29T07:53:57;10.00;;;7.00;;
37169;SDS011;23062;13.952;100.608;2022-07-29T07:58:47;5.00;;;4.00;;
37169;SDS011;23062;13.952;100.608;2022-07-29T08:03:37;8.00;;;6.00;;
37169;SDS011;23062;13.952;100.608;2022-07-29T08:08:27;8.00;;;6.00;;
37169;SDS011;23062;13.952;100.608;2022-07-29T08:13:17;10.00;;;7.00;;
37169;SDS011;23062;13.952;100.608;2022-07-29T08:18:12;8.00;;;5.60;;
37169;SDS011;23062;13.952;100.608;2022-07-29T08:23:02;9.00;;;6.00;;
37169;SDS011;23062;13.952;100.608;2022-07-29T08:27:52;8.00;;;6.00;;
37169;SDS011;23062;13.952;100.608;2022-07-29T08:32:43;8.00;;;6.00;;
37169;SDS011;23062;13.952;100.608;2022-07-29T08:37:34;6.00;;;4.00;;
37169;SDS011;23062;13.952;100.608;2022-07-29T08:42:23;7.00;;;5.00;;
37169;SDS011;23062;13.952;100.608;2022-07-29T08:47:16;9.00;;;6.00;;
37169;SDS011;23062;13.952;100.608;2022-07-29T08:52:06;8.00;;;6.00;;
37169;SDS011;23062;13.952;100.608;2022-07-29T08:56:57;8.00;;;6.00;;
37169;SDS011;23062;13.952;100.608;2022-07-29T09:01:47;8.00;;;6.00;;
37169;SDS011;23062;13.952;100.608;2022-07-29T09:06:40;11.00;;;8.00;;
37169;SDS011;23062;13.952;100.608;2022-07-29T09:11:33;11.00;;;8.00;;
37169;SDS011;23062;13.952;100.608;2022-07-29T09:16:23;15.00;;;11.00;;
37169;SDS011;23062;13.952;100.608;2022-07-29T09:21:13;12.00;;;8.40;;
37169;SDS011;23062;13.952;100.608;2022-07-29T09:26:20;10.00;;;7.00;;
37169;SDS011;23062;13.952;100.608;2022-07-29T09:31:12;12.00;;;8.00;;
37169;SDS011;23062;13.952;100.608;2022-07-29T09:36:05;11.00;;;7.00;;
37169;SDS011;23062;13.952;100.608;2022-07-29T09:41:00;12.00;;;8.00;;
37169;SDS011;23062;13.952;100.608;2022-07-29T09:45:50;10.00;;;7.00;;
37169;SDS011;23062;13.952;100.608;2022-07-29T09:50:41;10.00;;;6.53;;
37169;SDS011;23062;13.952;100.608;2022-07-29T09:55:32;9.00;;;7.00;;
37169;SDS011;23062;13.952;100.608;2022-07-29T10:00:25;9.00;;;6.00;;
37169;SDS011;23062;13.952;100.608;2022-07-29T10:05:24;7.00;;;4.67;;
37169;SDS011;23062;13.952;100.608;2022-07-29T10:10:20;8.00;;;6.00;;
37169;SDS011;23062;13.952;100.608;2022-07-29T10:15:11;7.00;;;5.00;;
37169;SDS011;23062;13.952;100.608;2022-07-29T10:20:01;7.00;;;5.00;;
37169;SDS011;23062;13.952;100.608;2022-07-29T10:24:51;8.00;;;6.00;;
37169;SDS011;23062;13.952;100.608;2022-07-29T10:29:41;7.00;;;5.00;;
37169;SDS011;23062;13.952;100.608;2022-07-29T10:34:34;8.00;;;6.00;;
37169;SDS011;23062;13.952;100.608;2022-07-29T10:45:17;11.00;;;8.00;;
37169;SDS011;23062;13.952;100.608;2022-07-29T10:50:07;9.00;;;6.00;;
37169;SDS011;23062;13.952;100.608;2022-07-29T10:54:57;9.00;;;6.00;;
37169;SDS011;23062;13.952;100.608;2022-07-29T10:59:49;7.00;;;5.00;;
37169;SDS011;23062;13.952;100.608;2022-07-29T11:09:38;9.00;;;6.00;;
37169;SDS011;23062;13.952;100.608;2022-07-29T11:19:47;8.00;;;5.00;;
37169;SDS011;23062;13.952;100.608;2022-07-29T11:24:38;8.00;;;6.00;;
37169;SDS011;23062;13.952;100.608;2022-07-29T11:29:27;8.00;;;5.00;;
37169;SDS011;23062;13.952;100.608;2022-07-29T11:34:28;8.00;;;5.00;;
37169;SDS011;23062;13.952;100.608;2022-07-29T11:39:26;9.00;;;6.00;;
37169;SDS011;23062;13.952;100.608;2022-07-29T11:44:17;8.00;;;5.00;;
37169;SDS011;23062;13.952;100.608;2022-07-29T11:49:09;8.00;;;6.00;;
37169;SDS011;23062;13.952;100.608;2022-07-29T11:53:59;10.00;;;7.00;;
37169;SDS011;23062;13.952;100.608;2022-07-29T11:58:50;10.00;;;7.00;;
37169;SDS011;23062;13.952;100.608;2022-07-29T12:03:40;8.00;;;6.00;;
37169;SDS011;23062;13.952;100.608;2022-07-29T12:08:30;9.00;;;6.00;;
37169;SDS011;23062;13.952;100.608;2022-07-29T12:13:23;9.00;;;6.00;;
37169;SDS011;23062;13.952;100.608;2022-07-29T12:18:16;8.00;;;5.00;;
37169;SDS011;23062;13.952;100.608;2022-07-29T12:23:08;8.00;;;5.00;;
37169;SDS011;23062;13.952;100.608;2022-07-29T12:28:02;5.00;;;3.00;;
37169;SDS011;23062;13.952;100.608;2022-07-29T12:32:53;7.00;;;4.00;;
37169;SDS011;23062;13.952;100.608;2022-07-29T12:37:44;6.00;;;4.00;;
37169;SDS011;23062;13.952;100.608;2022-07-29T12:42:35;6.00;;;4.00;;
37169;SDS011;23062;13.952;100.608;2022-07-29T12:47:25;6.00;;;4.00;;
37169;SDS011;23062;13.952;100.608;2022-07-29T12:57:19;8.00;;;5.00;;
37169;SDS011;23062;13.952;100.608;2022-07-29T13:02:23;5.00;;;3.00;;
37169;SDS011;23062;13.952;100.608;2022-07-29T13:07:15;5.00;;;3.00;;
37169;SDS011;23062;13.952;100.608;2022-07-29T13:12:10;4.00;;;3.00;;
37169;SDS011;23062;13.952;100.608;2022-07-29T13:17:17;7.00;;;4.00;;
37169;SDS011;23062;13.952;100.608;2022-07-29T13:22:12;6.00;;;4.00;;
37169;SDS011;23062;13.952;100.608;2022-07-29T13:27:04;5.00;;;3.00;;
37169;SDS011;23062;13.952;100.608;2022-07-29T13:31:53;6.00;;;4.00;;
37169;SDS011;23062;13.952;100.608;2022-07-29T13:36:43;3.00;;;2.00;;
37169;SDS011;23062;13.952;100.608;2022-07-29T13:41:33;4.00;;;3.00;;
37169;SDS011;23062;13.952;100.608;2022-07-29T13:46:23;3.00;;;2.00;;
37169;SDS011;23062;13.952;100.608;2022-07-29T13:51:12;6.00;;;4.00;;
37169;SDS011;23062;13.952;100.608;2022-07-29T13:56:02;3.00;;;2.00;;
37169;SDS011;23062;13.952;100.608;2022-07-29T14:00:55;5.00;;;3.00;;
37169;SDS011;23062;13.952;100.608;2022-07-29T14:05:45;5.00;;;3.00;;
37169;SDS011;23062;13.952;100.608;2022-07-29T14:10:35;4.00;;;2.00;;
37169;SDS011;23062;13.952;100.608;2022-07-29T14:15:24;3.00;;;2.00;;
37169;SDS011;23062;13.952;100.608;2022-07-29T14:20:15;4.00;;;3.00;;
37169;SDS011;23062;13.952;100.608;2022-07-29T14:25:05;4.00;;;2.00;;
37169;SDS011;23062;13.952;100.608;2022-07-29T14:29:55;5.00;;;3.00;;
37169;SDS011;23062;13.952;100.608;2022-07-29T14:34:46;3.00;;;2.00;;
37169;SDS011;23062;13.952;100.608;2022-07-29T14:39:35;3.00;;;2.00;;
37169;SDS011;23062;13.952;100.608;2022-07-29T14:44:26;4.00;;;2.00;;
37169;SDS011;23062;13.952;100.608;2022-07-29T14:49:17;2.00;;;1.00;;
37169;SDS011;23062;13.952;100.608;2022-07-29T14:54:09;4.00;;;2.00;;
37169;SDS011;23062;13.952;100.608;2022-07-29T14:58:58;2.00;;;1.00;;
37169;SDS011;23062;13.952;100.608;2022-07-29T15:03:48;3.00;;;1.87;;
37169;SDS011;23062;13.952;100.608;2022-07-29T15:08:38;3.00;;;2.00;;
37169;SDS011;23062;13.952;100.608;2022-07-29T15:13:28;2.00;;;1.00;;
37169;SDS011;23062;13.952;100.608;2022-07-29T15:18:17;3.00;;;2.00;;
37169;SDS011;23062;13.952;100.608;2022-07-29T15:23:07;2.00;;;1.00;;
37169;SDS011;23062;13.952;100.608;2022-07-29T15:27:58;5.00;;;3.00;;
37169;SDS011;23062;13.952;100.608;2022-07-29T15:32:49;4.00;;;2.00;;
37169;SDS011;23062;13.952;100.608;2022-07-29T15:37:39;3.00;;;1.00;;
37169;SDS011;23062;13.952;100.608;2022-07-29T15:42:29;2.00;;;1.00;;
37169;SDS011;23062;13.952;100.608;2022-07-29T15:47:20;4.00;;;3.00;;
37169;SDS011;23062;13.952;100.608;2022-07-29T15:52:10;2.00;;;1.00;;
37169;SDS011;23062;13.952;100.608;2022-07-29T15:57:00;2.00;;;1.00;;
37169;SDS011;23062;13.952;100.608;2022-07-29T16:01:51;4.00;;;3.00;;
37169;SDS011;23062;13.952;100.608;2022-07-29T16:06:42;4.00;;;2.00;;
37169;SDS011;23062;13.952;100.608;2022-07-29T16:11:32;2.00;;;1.00;;
37169;SDS011;23062;13.952;100.608;2022-07-29T16:16:22;2.00;;;1.00;;
37169;SDS011;23062;13.952;100.608;2022-07-29T16:21:12;3.00;;;1.00;;
37169;SDS011;23062;13.952;100.608;2022-07-29T16:26:03;2.00;;;1.00;;
37169;SDS011;23062;13.952;100.608;2022-07-29T16:30:53;4.00;;;2.00;;
37169;SDS011;23062;13.952;100.608;2022-07-29T16:35:43;2.00;;;1.00;;
37169;SDS011;23062;13.952;100.608;2022-07-29T16:40:33;2.00;;;1.00;;
37169;SDS011;23062;13.952;100.608;2022-07-29T16:45:23;4.00;;;2.00;;
37169;SDS011;23062;13.952;100.608;2022-07-29T16:50:13;3.00;;;2.00;;
37169;SDS011;23062;13.952;100.608;2022-07-29T16:55:03;4.00;;;2.00;;
37169;SDS011;23062;13.952;100.608;2022-07-29T16:59:54;3.00;;;2.00;;
37169;SDS011;23062;13.952;100.608;2022-07-29T17:04:44;2.00;;;1.00;;
37169;SDS011;23062;13.952;100.608;2022-07-29T17:09:34;4.00;;;3.00;;
37169;SDS011;23062;13.952;100.608;2022-07-29T17:14:24;2.00;;;1.00;;
37169;SDS011;23062;13.952;100.608;2022-07-29T17:19:16;4.00;;;2.00;;
37169;SDS011;23062;13.952;100.608;2022-07-29T17:24:06;2.00;;;1.00;;
37169;SDS011;23062;13.952;100.608;2022-07-29T17:28:56;3.00;;;2.00;;
37169;SDS011;23062;13.952;100.608;2022-07-29T17:33:46;3.00;;;1.00;;
37169;SDS011;23062;13.952;100.608;2022-07-29T17:38:35;2.00;;;1.00;;
37169;SDS011;23062;13.952;100.608;2022-07-29T17:43:25;2.00;;;1.00;;
37169;SDS011;23062;13.952;100.608;2022-07-29T17:48:15;2.00;;;1.00;;
37169;SDS011;23062;13.952;100.608;2022-07-29T17:53:05;4.00;;;2.00;;
37169;SDS011;23062;13.952;100.608;2022-07-29T17:57:56;4.00;;;2.00;;
37169;SDS011;23062;13.952;100.608;2022-07-29T18:02:46;2.00;;;1.00;;
37169;SDS011;23062;13.952;100.608;2022-07-29T18:07:35;2.00;;;1.00;;
37169;SDS011;23062;13.952;100.608;2022-07-29T18:12:25;2.00;;;1.00;;
37169;SDS011;23062;13.952;100.608;2022-07-29T18:17:15;3.00;;;2.00;;
37169;SDS011;23062;13.952;100.608;2022-07-29T18:22:05;3.00;;;2.00;;
37169;SDS011;23062;13.952;100.608;2022-07-29T18:26:55;2.00;;;1.00;;
37169;SDS011;23062;13.952;100.608;2022-07-29T18:31:45;3.00;;;1.87;;
37169;SDS011;23062;13.952;100.608;2022-07-29T18:36:35;2.00;;;1.00;;
37169;SDS011;23062;13.952;100.608;2022-07-29T18:41:25;2.00;;;1.00;;
37169;SDS011;23062;13.952;100.608;2022-07-29T18:46:14;4.00;;;2.00;;
37169;SDS011;23062;13.952;100.608;2022-07-29T18:51:04;3.00;;;2.00;;
37169;SDS011;23062;13.952;100.608;2022-07-29T18:55:54;3.00;;;2.00;;
37169;SDS011;23062;13.952;100.608;2022-07-29T19:00:44;5.00;;;3.00;;
37169;SDS011;23062;13.952;100.608;2022-07-29T19:05:33;2.00;;;1.00;;
37169;SDS011;23062;13.952;100.608;2022-07-29T19:10:23;3.00;;;1.87;;
37169;SDS011;23062;13.952;100.608;2022-07-29T19:15:13;3.00;;;2.00;;
37169;SDS011;23062;13.952;100.608;2022-07-29T19:20:04;3.00;;;2.00;;
37169;SDS011;23062;13.952;100.608;2022-07-29T19:24:55;4.00;;;2.00;;
37169;SDS011;23062;13.952;100.608;2022-07-29T19:29:45;2.00;;;1.00;;
37169;SDS011;23062;13.952;100.608;2022-07-29T19:34:36;2.00;;;0.93;;
37169;SDS011;23062;13.952;100.608;2022-07-29T19:39:27;3.00;;;1.00;;
37169;SDS011;23062;13.952;100.608;2022-07-29T19:44:17;4.00;;;2.00;;
37169;SDS011;23062;13.952;100.608;2022-07-29T19:49:07;3.00;;;2.00;;
37169;SDS011;23062;13.952;100.608;2022-07-29T19:53:58;3.00;;;2.00;;
37169;SDS011;23062;13.952;100.608;2022-07-29T19:58:48;4.00;;;2.00;;
37169;SDS011;23062;13.952;100.608;2022-07-29T20:03:38;3.00;;;1.00;;
37169;SDS011;23062;13.952;100.608;2022-07-29T20:08:27;3.00;;;2.00;;
37169;SDS011;23062;13.952;100.608;2022-07-29T20:13:18;3.00;;;2.00;;
37169;SDS011;23062;13.952;100.608;2022-07-29T20:18:09;3.00;;;2.00;;
37169;SDS011;23062;13.952;100.608;2022-07-29T20:23:00;4.00;;;2.00;;
37169;SDS011;23062;13.952;100.608;2022-07-29T20:27:51;3.00;;;1.00;;
37169;SDS011;23062;13.952;100.608;2022-07-29T20:32:41;4.00;;;2.00;;
37169;SDS011;23062;13.952;100.608;2022-07-29T20:37:31;6.00;;;4.00;;
37169;SDS011;23062;13.952;100.608;2022-07-29T20:42:21;4.00;;;2.00;;
37169;SDS011;23062;13.952;100.608;2022-07-29T20:47:12;4.00;;;2.60;;
37169;SDS011;23062;13.952;100.608;2022-07-29T20:52:02;4.00;;;2.00;;
37169;SDS011;23062;13.952;100.608;2022-07-29T20:56:52;3.00;;;2.00;;
37169;SDS011;23062;13.952;100.608;2022-07-29T21:01:43;3.00;;;2.00;;
37169;SDS011;23062;13.952;100.608;2022-07-29T21:06:32;3.00;;;2.00;;
37169;SDS011;23062;13.952;100.608;2022-07-29T21:11:22;2.00;;;1.00;;
37169;SDS011;23062;13.952;100.608;2022-07-29T21:16:13;4.00;;;2.00;;
37169;SDS011;23062;13.952;100.608;2022-07-29T21:21:05;4.00;;;2.00;;
37169;SDS011;23062;13.952;100.608;2022-07-29T21:25:55;4.00;;;2.00;;
37169;SDS011;23062;13.952;100.608;2022-07-29T21:30:46;4.00;;;2.00;;
37169;SDS011;23062;13.952;100.608;2022-07-29T21:35:35;4.00;;;2.00;;
37169;SDS011;23062;13.952;100.608;2022-07-29T21:40:25;4.00;;;2.00;;
37169;SDS011;23062;13.952;100.608;2022-07-29T21:45:16;3.00;;;2.00;;
37169;SDS011;23062;13.952;100.608;2022-07-29T21:50:06;5.00;;;3.00;;
37169;SDS011;23062;13.952;100.608;2022-07-29T21:54:57;4.00;;;1.87;;
37169;SDS011;23062;13.952;100.608;2022-07-29T21:59:48;4.00;;;2.00;;
37169;SDS011;23062;13.952;100.608;2022-07-29T22:04:38;3.00;;;2.00;;
37169;SDS011;23062;13.952;100.608;2022-07-29T22:09:28;4.00;;;2.00;;
37169;SDS011;23062;13.952;100.608;2022-07-29T22:14:18;3.00;;;2.00;;
37169;SDS011;23062;13.952;100.608;2022-07-29T22:19:08;6.00;;;4.00;;
37169;SDS011;23062;13.952;100.608;2022-07-29T22:23:58;5.00;;;3.00;;
37169;SDS011;23062;13.952;100.608;2022-07-29T22:28:48;5.00;;;3.00;;
37169;SDS011;23062;13.952;100.608;2022-07-29T22:33:39;9.00;;;7.00;;
37169;SDS011;23062;13.952;100.608;2022-07-29T22:38:29;14.00;;;10.00;;
37169;SDS011;23062;13.952;100.608;2022-07-29T22:43:19;17.00;;;13.00;;
37169;SDS011;23062;13.952;100.608;2022-07-29T22:48:09;19.00;;;14.00;;
37169;SDS011;23062;13.952;100.608;2022-07-29T22:52:59;19.00;;;15.00;;
37169;SDS011;23062;13.952;100.608;2022-07-29T22:57:48;25.00;;;18.00;;
37169;SDS011;23062;13.952;100.608;2022-07-29T23:02:38;23.00;;;18.00;;
37169;SDS011;23062;13.952;100.608;2022-07-29T23:07:28;28.00;;;21.00;;
37169;SDS011;23062;13.952;100.608;2022-07-29T23:12:19;32.00;;;23.00;;
37169;SDS011;23062;13.952;100.608;2022-07-29T23:17:08;33.00;;;24.00;;
37169;SDS011;23062;13.952;100.608;2022-07-29T23:21:58;26.00;;;19.00;;
37169;SDS011;23062;13.952;100.608;2022-07-29T23:26:49;16.00;;;12.00;;
37169;SDS011;23062;13.952;100.608;2022-07-29T23:31:39;15.00;;;10.00;;
37169;SDS011;23062;13.952;100.608;2022-07-29T23:36:29;13.00;;;10.00;;
37169;SDS011;23062;13.952;100.608;2022-07-29T23:41:19;31.00;;;23.00;;
37169;SDS011;23062;13.952;100.608;2022-07-29T23:46:09;248.00;;;194.00;;
37169;SDS011;23062;13.952;100.608;2022-07-29T23:50:59;314.00;;;250.00;;
37169;SDS011;23062;13.952;100.608;2022-07-29T23:55:49;196.00;;;153.00;;
